Minnetrista, Minnesota
Current Conditions -  °F | °C
As of 11:53 PM on Thursday 27 Nov 2014 (Local Time) from KFCM Reporting Station
Light Snow Light Snow  
Wind Chill: -7°   Ceiling: 2000
Heat Index:   Visibility: 1.2mi
Dew Point:   Wind: 8mph
Humidity: 83%   Direction: 130°SE
Pressure: 30.25"   Gusts: NA
Location:  44.8587°N, 93.7796°W
Report Text: KFCM 280553Z AUTO 13007KT 1 1/4SM -SN BR OVC020 M14/M17 A3025 RMK AO2 SLP266 P0002 60002 T11441167 11139 21150 411221194 58017
Loading
Personal Weather Stations






























Interactive Weather Map New forecast layout! Learn more

10-Day Weather Forecast

Advertisements
Track Severe Weather on mobile